sensor_id;sensor_type;location;lat;lon;timestamp;P1;durP1;ratioP1;P2;durP2;ratioP2
10333;SDS011;5212;47.892;16.406;2022-09-27T00:00:57;2.90;;;2.60;;
10333;SDS011;5212;47.892;16.406;2022-09-27T00:03:25;2.60;;;2.40;;
10333;SDS011;5212;47.892;16.406;2022-09-27T00:05:59;2.50;;;2.30;;
10333;SDS011;5212;47.892;16.406;2022-09-27T00:08:29;3.33;;;2.70;;
10333;SDS011;5212;47.892;16.406;2022-09-27T00:10:58;3.40;;;2.83;;
10333;SDS011;5212;47.892;16.406;2022-09-27T00:13:27;3.20;;;2.90;;
10333;SDS011;5212;47.892;16.406;2022-09-27T00:15:55;3.37;;;2.90;;
10333;SDS011;5212;47.892;16.406;2022-09-27T00:18:23;2.80;;;2.60;;
10333;SDS011;5212;47.892;16.406;2022-09-27T00:20:50;2.70;;;2.50;;
10333;SDS011;5212;47.892;16.406;2022-09-27T00:23:18;3.00;;;2.70;;
10333;SDS011;5212;47.892;16.406;2022-09-27T00:25:53;2.90;;;2.67;;
10333;SDS011;5212;47.892;16.406;2022-09-27T00:28:21;2.90;;;2.57;;
10333;SDS011;5212;47.892;16.406;2022-09-27T00:30:50;3.00;;;2.70;;
10333;SDS011;5212;47.892;16.406;2022-09-27T00:33:18;2.90;;;2.60;;
10333;SDS011;5212;47.892;16.406;2022-09-27T00:35:45;2.83;;;2.63;;
10333;SDS011;5212;47.892;16.406;2022-09-27T00:38:12;2.97;;;2.60;;
10333;SDS011;5212;47.892;16.406;2022-09-27T00:40:39;3.43;;;3.13;;
10333;SDS011;5212;47.892;16.406;2022-09-27T00:43:10;3.73;;;3.00;;
10333;SDS011;5212;47.892;16.406;2022-09-27T00:45:41;3.60;;;3.30;;
10333;SDS011;5212;47.892;16.406;2022-09-27T00:48:11;3.43;;;3.10;;
10333;SDS011;5212;47.892;16.406;2022-09-27T00:50:41;3.03;;;2.73;;
10333;SDS011;5212;47.892;16.406;2022-09-27T00:53:26;4.20;;;2.90;;
10333;SDS011;5212;47.892;16.406;2022-09-27T00:55:56;2.57;;;2.37;;
10333;SDS011;5212;47.892;16.406;2022-09-27T00:58:25;2.60;;;2.40;;
10333;SDS011;5212;47.892;16.406;2022-09-27T01:00:56;3.17;;;2.87;;
10333;SDS011;5212;47.892;16.406;2022-09-27T01:03:28;3.77;;;2.83;;
10333;SDS011;5212;47.892;16.406;2022-09-27T01:05:58;3.00;;;2.70;;
10333;SDS011;5212;47.892;16.406;2022-09-27T01:11:27;3.40;;;2.80;;
10333;SDS011;5212;47.892;16.406;2022-09-27T01:14:06;3.53;;;3.23;;
10333;SDS011;5212;47.892;16.406;2022-09-27T01:16:45;4.33;;;2.90;;
10333;SDS011;5212;47.892;16.406;2022-09-27T01:19:19;3.90;;;2.90;;
10333;SDS011;5212;47.892;16.406;2022-09-27T01:21:57;3.30;;;3.00;;
10333;SDS011;5212;47.892;16.406;2022-09-27T01:30:38;3.30;;;3.00;;
10333;SDS011;5212;47.892;16.406;2022-09-27T01:33:11;3.73;;;2.97;;
10333;SDS011;5212;47.892;16.406;2022-09-27T01:35:45;3.30;;;3.00;;
10333;SDS011;5212;47.892;16.406;2022-09-27T01:38:22;3.50;;;3.17;;
10333;SDS011;5212;47.892;16.406;2022-09-27T01:40:51;2.67;;;2.47;;
10333;SDS011;5212;47.892;16.406;2022-09-27T01:43:25;3.07;;;2.77;;
10333;SDS011;5212;47.892;16.406;2022-09-27T01:45:57;3.30;;;3.00;;
10333;SDS011;5212;47.892;16.406;2022-09-27T01:48:27;3.30;;;3.00;;
10333;SDS011;5212;47.892;16.406;2022-09-27T01:50:58;4.03;;;3.17;;
10333;SDS011;5212;47.892;16.406;2022-09-27T01:53:30;3.77;;;3.07;;
10333;SDS011;5212;47.892;16.406;2022-09-27T01:56:00;3.43;;;3.00;;
10333;SDS011;5212;47.892;16.406;2022-09-27T01:58:31;3.20;;;2.90;;
10333;SDS011;5212;47.892;16.406;2022-09-27T02:01:02;3.40;;;3.10;;
10333;SDS011;5212;47.892;16.406;2022-09-27T02:03:31;4.37;;;3.70;;
10333;SDS011;5212;47.892;16.406;2022-09-27T02:06:01;3.90;;;3.50;;
10333;SDS011;5212;47.892;16.406;2022-09-27T02:08:30;3.73;;;3.33;;
10333;SDS011;5212;47.892;16.406;2022-09-27T02:11:02;3.40;;;3.10;;
10333;SDS011;5212;47.892;16.406;2022-09-27T02:13:33;3.47;;;3.17;;
10333;SDS011;5212;47.892;16.406;2022-09-27T02:16:08;3.23;;;2.93;;
10333;SDS011;5212;47.892;16.406;2022-09-27T02:18:44;4.23;;;3.83;;
10333;SDS011;5212;47.892;16.406;2022-09-27T02:21:15;3.63;;;3.33;;
10333;SDS011;5212;47.892;16.406;2022-09-27T02:23:45;4.30;;;3.90;;
10333;SDS011;5212;47.892;16.406;2022-09-27T02:26:15;4.10;;;3.70;;
10333;SDS011;5212;47.892;16.406;2022-09-27T02:28:44;3.73;;;3.43;;
10333;SDS011;5212;47.892;16.406;2022-09-27T02:31:15;4.07;;;3.73;;
10333;SDS011;5212;47.892;16.406;2022-09-27T02:33:44;4.17;;;3.77;;
10333;SDS011;5212;47.892;16.406;2022-09-27T02:36:14;4.30;;;3.67;;
10333;SDS011;5212;47.892;16.406;2022-09-27T02:38:41;4.20;;;3.80;;
10333;SDS011;5212;47.892;16.406;2022-09-27T02:41:13;3.60;;;3.30;;
10333;SDS011;5212;47.892;16.406;2022-09-27T02:43:41;4.40;;;3.43;;
10333;SDS011;5212;47.892;16.406;2022-09-27T02:46:17;4.27;;;2.80;;
10333;SDS011;5212;47.892;16.406;2022-09-27T02:48:55;3.27;;;2.97;;
10333;SDS011;5212;47.892;16.406;2022-09-27T02:51:33;3.37;;;3.07;;
10333;SDS011;5212;47.892;16.406;2022-09-27T02:54:22;3.63;;;3.30;;
10333;SDS011;5212;47.892;16.406;2022-09-27T02:56:56;4.10;;;3.70;;
10333;SDS011;5212;47.892;16.406;2022-09-27T02:59:31;3.80;;;3.37;;
10333;SDS011;5212;47.892;16.406;2022-09-27T03:02:06;4.53;;;4.07;;
10333;SDS011;5212;47.892;16.406;2022-09-27T03:04:37;4.70;;;4.03;;
10333;SDS011;5212;47.892;16.406;2022-09-27T03:07:06;4.07;;;3.50;;
10333;SDS011;5212;47.892;16.406;2022-09-27T03:09:39;4.20;;;3.80;;
10333;SDS011;5212;47.892;16.406;2022-09-27T03:12:08;4.03;;;3.63;;
10333;SDS011;5212;47.892;16.406;2022-09-27T03:14:35;4.40;;;4.00;;
10333;SDS011;5212;47.892;16.406;2022-09-27T03:17:04;4.60;;;4.10;;
10333;SDS011;5212;47.892;16.406;2022-09-27T03:19:32;4.13;;;3.70;;
10333;SDS011;5212;47.892;16.406;2022-09-27T03:21:59;3.67;;;3.37;;
10333;SDS011;5212;47.892;16.406;2022-09-27T03:24:26;3.97;;;3.57;;
10333;SDS011;5212;47.892;16.406;2022-09-27T03:26:53;5.30;;;3.60;;
10333;SDS011;5212;47.892;16.406;2022-09-27T03:29:20;3.87;;;3.43;;
10333;SDS011;5212;47.892;16.406;2022-09-27T03:31:47;3.90;;;3.50;;
10333;SDS011;5212;47.892;16.406;2022-09-27T03:34:16;3.70;;;3.13;;
10333;SDS011;5212;47.892;16.406;2022-09-27T03:36:43;4.23;;;3.70;;
10333;SDS011;5212;47.892;16.406;2022-09-27T03:39:11;4.33;;;3.57;;
10333;SDS011;5212;47.892;16.406;2022-09-27T03:41:38;3.50;;;3.20;;
10333;SDS011;5212;47.892;16.406;2022-09-27T03:44:05;4.23;;;3.77;;
10333;SDS011;5212;47.892;16.406;2022-09-27T03:46:32;4.00;;;3.60;;
10333;SDS011;5212;47.892;16.406;2022-09-27T03:48:59;4.10;;;3.30;;
10333;SDS011;5212;47.892;16.406;2022-09-27T03:51:28;3.20;;;2.90;;
10333;SDS011;5212;47.892;16.406;2022-09-27T03:53:55;3.30;;;3.00;;
10333;SDS011;5212;47.892;16.406;2022-09-27T03:56:22;3.83;;;3.27;;
10333;SDS011;5212;47.892;16.406;2022-09-27T03:58:49;3.80;;;3.50;;
10333;SDS011;5212;47.892;16.406;2022-09-27T04:01:16;4.17;;;3.40;;
10333;SDS011;5212;47.892;16.406;2022-09-27T04:03:44;4.23;;;3.83;;
10333;SDS011;5212;47.892;16.406;2022-09-27T04:06:11;4.20;;;3.80;;
10333;SDS011;5212;47.892;16.406;2022-09-27T04:08:40;4.47;;;3.80;;
10333;SDS011;5212;47.892;16.406;2022-09-27T04:11:07;4.37;;;3.77;;
10333;SDS011;5212;47.892;16.406;2022-09-27T04:13:34;3.70;;;3.40;;
10333;SDS011;5212;47.892;16.406;2022-09-27T04:16:02;4.63;;;3.80;;
10333;SDS011;5212;47.892;16.406;2022-09-27T04:18:29;4.57;;;3.60;;
10333;SDS011;5212;47.892;16.406;2022-09-27T04:20:56;3.90;;;3.50;;
10333;SDS011;5212;47.892;16.406;2022-09-27T04:23:26;4.10;;;3.37;;
10333;SDS011;5212;47.892;16.406;2022-09-27T04:25:55;4.00;;;3.60;;
10333;SDS011;5212;47.892;16.406;2022-09-27T04:28:22;3.97;;;3.57;;
10333;SDS011;5212;47.892;16.406;2022-09-27T04:30:49;4.03;;;3.50;;
10333;SDS011;5212;47.892;16.406;2022-09-27T04:33:16;3.90;;;3.50;;
10333;SDS011;5212;47.892;16.406;2022-09-27T04:35:43;3.70;;;3.27;;
10333;SDS011;5212;47.892;16.406;2022-09-27T04:48:49;3.90;;;3.33;;
10333;SDS011;5212;47.892;16.406;2022-09-27T04:51:17;3.93;;;3.53;;
10333;SDS011;5212;47.892;16.406;2022-09-27T04:53:45;4.00;;;3.60;;
10333;SDS011;5212;47.892;16.406;2022-09-27T04:56:12;5.17;;;3.57;;
10333;SDS011;5212;47.892;16.406;2022-09-27T04:58:40;4.03;;;3.63;;
10333;SDS011;5212;47.892;16.406;2022-09-27T05:01:07;5.23;;;4.43;;
10333;SDS011;5212;47.892;16.406;2022-09-27T05:03:34;4.57;;;4.17;;
10333;SDS011;5212;47.892;16.406;2022-09-27T05:06:03;4.57;;;4.17;;
10333;SDS011;5212;47.892;16.406;2022-09-27T05:08:31;4.13;;;3.63;;
10333;SDS011;5212;47.892;16.406;2022-09-27T05:10:58;4.30;;;3.80;;
10333;SDS011;5212;47.892;16.406;2022-09-27T05:13:26;4.40;;;3.90;;
10333;SDS011;5212;47.892;16.406;2022-09-27T05:15:53;4.67;;;4.17;;
10333;SDS011;5212;47.892;16.406;2022-09-27T05:18:22;4.50;;;3.67;;
10333;SDS011;5212;47.892;16.406;2022-09-27T05:20:49;3.53;;;3.20;;
10333;SDS011;5212;47.892;16.406;2022-09-27T05:23:19;3.30;;;3.00;;
10333;SDS011;5212;47.892;16.406;2022-09-27T05:25:46;4.63;;;4.20;;
10333;SDS011;5212;47.892;16.406;2022-09-27T05:28:13;7.23;;;4.40;;
10333;SDS011;5212;47.892;16.406;2022-09-27T05:30:40;4.30;;;3.90;;
10333;SDS011;5212;47.892;16.406;2022-09-27T05:33:08;5.20;;;4.60;;
10333;SDS011;5212;47.892;16.406;2022-09-27T05:35:35;4.77;;;4.27;;
10333;SDS011;5212;47.892;16.406;2022-09-27T05:38:04;4.20;;;3.77;;
10333;SDS011;5212;47.892;16.406;2022-09-27T05:40:32;4.17;;;3.83;;
10333;SDS011;5212;47.892;16.406;2022-09-27T05:42:59;4.87;;;4.20;;
10333;SDS011;5212;47.892;16.406;2022-09-27T05:45:27;4.40;;;4.00;;
10333;SDS011;5212;47.892;16.406;2022-09-27T05:47:54;5.20;;;4.00;;
10333;SDS011;5212;47.892;16.406;2022-09-27T05:50:22;7.13;;;5.53;;
10333;SDS011;5212;47.892;16.406;2022-09-27T05:52:50;6.00;;;5.37;;
10333;SDS011;5212;47.892;16.406;2022-09-27T05:55:17;5.67;;;5.00;;
10333;SDS011;5212;47.892;16.406;2022-09-27T05:57:56;6.77;;;6.17;;
10333;SDS011;5212;47.892;16.406;2022-09-27T06:00:24;6.27;;;5.67;;
10333;SDS011;5212;47.892;16.406;2022-09-27T06:02:53;6.40;;;4.80;;
10333;SDS011;5212;47.892;16.406;2022-09-27T06:05:21;7.40;;;6.33;;
10333;SDS011;5212;47.892;16.406;2022-09-27T06:07:48;5.77;;;5.20;;
10333;SDS011;5212;47.892;16.406;2022-09-27T06:10:15;5.77;;;4.77;;
10333;SDS011;5212;47.892;16.406;2022-09-27T06:12:42;5.27;;;4.63;;
10333;SDS011;5212;47.892;16.406;2022-09-27T06:15:11;6.27;;;5.37;;
10333;SDS011;5212;47.892;16.406;2022-09-27T06:17:38;5.23;;;4.73;;
10333;SDS011;5212;47.892;16.406;2022-09-27T06:20:06;5.57;;;4.97;;
10333;SDS011;5212;47.892;16.406;2022-09-27T06:22:34;5.30;;;4.40;;
10333;SDS011;5212;47.892;16.406;2022-09-27T06:25:02;5.07;;;4.40;;
10333;SDS011;5212;47.892;16.406;2022-09-27T06:27:29;4.70;;;4.17;;
10333;SDS011;5212;47.892;16.406;2022-09-27T06:29:57;5.03;;;4.50;;
10333;SDS011;5212;47.892;16.406;2022-09-27T06:32:26;5.30;;;4.80;;
10333;SDS011;5212;47.892;16.406;2022-09-27T06:34:53;5.00;;;4.50;;
10333;SDS011;5212;47.892;16.406;2022-09-27T06:37:23;5.33;;;4.73;;
10333;SDS011;5212;47.892;16.406;2022-09-27T06:39:51;5.07;;;4.43;;
10333;SDS011;5212;47.892;16.406;2022-09-27T06:42:18;5.10;;;4.53;;
10333;SDS011;5212;47.892;16.406;2022-09-27T06:44:45;4.57;;;4.10;;
10333;SDS011;5212;47.892;16.406;2022-09-27T06:47:14;5.80;;;4.73;;
10333;SDS011;5212;47.892;16.406;2022-09-27T06:49:43;5.00;;;4.50;;
10333;SDS011;5212;47.892;16.406;2022-09-27T06:52:10;4.97;;;4.57;;
10333;SDS011;5212;47.892;16.406;2022-09-27T06:54:37;4.10;;;3.70;;
10333;SDS011;5212;47.892;16.406;2022-09-27T06:57:04;4.90;;;4.40;;
10333;SDS011;5212;47.892;16.406;2022-09-27T06:59:31;5.70;;;4.63;;
10333;SDS011;5212;47.892;16.406;2022-09-27T07:02:15;7.00;;;5.23;;
10333;SDS011;5212;47.892;16.406;2022-09-27T07:04:44;6.33;;;5.40;;
10333;SDS011;5212;47.892;16.406;2022-09-27T07:07:11;5.77;;;4.63;;
10333;SDS011;5212;47.892;16.406;2022-09-27T07:09:38;9.50;;;5.20;;
10333;SDS011;5212;47.892;16.406;2022-09-27T07:12:05;5.40;;;4.67;;
10333;SDS011;5212;47.892;16.406;2022-09-27T07:14:32;6.30;;;4.60;;
10333;SDS011;5212;47.892;16.406;2022-09-27T07:17:00;6.40;;;4.50;;
10333;SDS011;5212;47.892;16.406;2022-09-27T07:19:27;6.27;;;5.67;;
10333;SDS011;5212;47.892;16.406;2022-09-27T07:21:56;6.70;;;5.30;;
10333;SDS011;5212;47.892;16.406;2022-09-27T07:24:23;6.40;;;4.67;;
10333;SDS011;5212;47.892;16.406;2022-09-27T07:26:50;5.00;;;4.50;;
10333;SDS011;5212;47.892;16.406;2022-09-27T07:29:17;4.57;;;3.63;;
10333;SDS011;5212;47.892;16.406;2022-09-27T07:31:44;6.40;;;3.90;;
10333;SDS011;5212;47.892;16.406;2022-09-27T07:34:11;5.60;;;4.70;;
10333;SDS011;5212;47.892;16.406;2022-09-27T07:36:38;5.57;;;4.20;;
10333;SDS011;5212;47.892;16.406;2022-09-27T07:39:08;4.07;;;3.60;;
10333;SDS011;5212;47.892;16.406;2022-09-27T07:41:35;4.07;;;3.67;;
10333;SDS011;5212;47.892;16.406;2022-09-27T07:44:03;4.50;;;3.80;;
10333;SDS011;5212;47.892;16.406;2022-09-27T07:46:32;4.60;;;4.20;;
10333;SDS011;5212;47.892;16.406;2022-09-27T07:48:59;6.10;;;4.00;;
10333;SDS011;5212;47.892;16.406;2022-09-27T07:51:26;4.40;;;3.80;;
10333;SDS011;5212;47.892;16.406;2022-09-27T07:53:53;4.57;;;3.80;;
10333;SDS011;5212;47.892;16.406;2022-09-27T07:56:22;5.23;;;4.60;;
10333;SDS011;5212;47.892;16.406;2022-09-27T07:58:49;7.30;;;4.97;;
10333;SDS011;5212;47.892;16.406;2022-09-27T08:01:16;7.00;;;5.80;;
10333;SDS011;5212;47.892;16.406;2022-09-27T08:03:43;6.93;;;5.67;;
10333;SDS011;5212;47.892;16.406;2022-09-27T08:06:11;6.57;;;5.40;;
10333;SDS011;5212;47.892;16.406;2022-09-27T08:08:38;5.87;;;5.03;;
10333;SDS011;5212;47.892;16.406;2022-09-27T08:11:09;5.50;;;4.60;;
10333;SDS011;5212;47.892;16.406;2022-09-27T08:13:40;4.70;;;4.20;;
10333;SDS011;5212;47.892;16.406;2022-09-27T08:16:10;4.97;;;4.03;;
10333;SDS011;5212;47.892;16.406;2022-09-27T08:18:38;5.40;;;4.47;;
10333;SDS011;5212;47.892;16.406;2022-09-27T08:21:06;5.47;;;4.50;;
10333;SDS011;5212;47.892;16.406;2022-09-27T08:23:33;4.47;;;4.07;;
10333;SDS011;5212;47.892;16.406;2022-09-27T08:26:01;5.60;;;4.73;;
10333;SDS011;5212;47.892;16.406;2022-09-27T08:28:29;5.47;;;4.97;;
10333;SDS011;5212;47.892;16.406;2022-09-27T08:30:58;5.23;;;4.73;;
10333;SDS011;5212;47.892;16.406;2022-09-27T08:33:25;4.93;;;4.50;;
10333;SDS011;5212;47.892;16.406;2022-09-27T08:35:53;8.43;;;5.90;;
10333;SDS011;5212;47.892;16.406;2022-09-27T08:38:20;6.20;;;5.60;;
10333;SDS011;5212;47.892;16.406;2022-09-27T08:40:50;6.00;;;5.40;;
10333;SDS011;5212;47.892;16.406;2022-09-27T08:43:29;6.23;;;5.63;;
10333;SDS011;5212;47.892;16.406;2022-09-27T08:46:09;6.90;;;6.17;;
10333;SDS011;5212;47.892;16.406;2022-09-27T08:48:41;6.77;;;6.07;;
10333;SDS011;5212;47.892;16.406;2022-09-27T08:51:10;6.57;;;5.57;;
10333;SDS011;5212;47.892;16.406;2022-09-27T08:53:40;7.60;;;6.00;;
10333;SDS011;5212;47.892;16.406;2022-09-27T08:56:11;7.07;;;5.97;;
10333;SDS011;5212;47.892;16.406;2022-09-27T08:58:40;5.97;;;4.87;;
10333;SDS011;5212;47.892;16.406;2022-09-27T09:01:14;5.50;;;4.97;;
10333;SDS011;5212;47.892;16.406;2022-09-27T09:03:43;4.93;;;4.43;;
10333;SDS011;5212;47.892;16.406;2022-09-27T09:06:13;4.77;;;4.20;;
10333;SDS011;5212;47.892;16.406;2022-09-27T09:08:50;5.30;;;4.27;;
10333;SDS011;5212;47.892;16.406;2022-09-27T09:11:26;4.87;;;3.80;;
10333;SDS011;5212;47.892;16.406;2022-09-27T09:14:24;4.60;;;2.90;;
10333;SDS011;5212;47.892;16.406;2022-09-27T09:17:09;3.40;;;2.87;;
10333;SDS011;5212;47.892;16.406;2022-09-27T09:19:43;2.83;;;2.40;;
10333;SDS011;5212;47.892;16.406;2022-09-27T09:22:36;2.93;;;2.43;;
10333;SDS011;5212;47.892;16.406;2022-09-27T09:27:59;2.63;;;2.13;;
10333;SDS011;5212;47.892;16.406;2022-09-27T09:30:34;2.90;;;2.30;;
10333;SDS011;5212;47.892;16.406;2022-09-27T09:33:15;2.53;;;2.33;;
10333;SDS011;5212;47.892;16.406;2022-09-27T09:35:49;2.80;;;2.37;;
10333;SDS011;5212;47.892;16.406;2022-09-27T09:38:24;3.60;;;2.50;;
10333;SDS011;5212;47.892;16.406;2022-09-27T09:40:55;2.20;;;2.00;;
10333;SDS011;5212;47.892;16.406;2022-09-27T09:43:28;2.20;;;2.00;;
10333;SDS011;5212;47.892;16.406;2022-09-27T09:45:59;1.97;;;1.77;;
10333;SDS011;5212;47.892;16.406;2022-09-27T09:48:31;2.13;;;1.93;;
10333;SDS011;5212;47.892;16.406;2022-09-27T09:51:04;1.90;;;1.70;;
10333;SDS011;5212;47.892;16.406;2022-09-27T09:53:36;2.63;;;1.70;;
10333;SDS011;5212;47.892;16.406;2022-09-27T09:56:06;1.90;;;1.80;;
10333;SDS011;5212;47.892;16.406;2022-09-27T09:58:39;2.40;;;1.80;;
10333;SDS011;5212;47.892;16.406;2022-09-27T10:01:11;2.10;;;1.83;;
10333;SDS011;5212;47.892;16.406;2022-09-27T10:03:41;1.93;;;1.60;;
10333;SDS011;5212;47.892;16.406;2022-09-27T10:06:09;2.30;;;1.70;;
10333;SDS011;5212;47.892;16.406;2022-09-27T10:08:36;2.27;;;1.53;;
10333;SDS011;5212;47.892;16.406;2022-09-27T10:11:04;3.70;;;1.87;;
10333;SDS011;5212;47.892;16.406;2022-09-27T10:13:32;2.20;;;2.00;;
10333;SDS011;5212;47.892;16.406;2022-09-27T10:16:00;2.40;;;2.07;;
10333;SDS011;5212;47.892;16.406;2022-09-27T10:18:29;2.13;;;1.70;;
10333;SDS011;5212;47.892;16.406;2022-09-27T10:21:00;2.30;;;1.90;;
10333;SDS011;5212;47.892;16.406;2022-09-27T10:23:28;2.23;;;2.00;;
10333;SDS011;5212;47.892;16.406;2022-09-27T10:25:55;3.30;;;2.00;;
10333;SDS011;5212;47.892;16.406;2022-09-27T10:28:34;2.27;;;1.97;;
10333;SDS011;5212;47.892;16.406;2022-09-27T10:31:03;2.00;;;1.80;;
10333;SDS011;5212;47.892;16.406;2022-09-27T10:33:32;1.67;;;1.47;;
10333;SDS011;5212;47.892;16.406;2022-09-27T10:36:02;3.33;;;2.20;;
10333;SDS011;5212;47.892;16.406;2022-09-27T10:38:31;2.40;;;1.73;;
10333;SDS011;5212;47.892;16.406;2022-09-27T10:43:42;3.40;;;2.17;;
10333;SDS011;5212;47.892;16.406;2022-09-27T10:46:11;1.47;;;1.30;;
10333;SDS011;5212;47.892;16.406;2022-09-27T10:48:40;2.40;;;1.20;;
10333;SDS011;5212;47.892;16.406;2022-09-27T10:51:20;1.67;;;1.37;;
10333;SDS011;5212;47.892;16.406;2022-09-27T10:53:50;1.20;;;1.10;;
10333;SDS011;5212;47.892;16.406;2022-09-27T10:56:19;1.73;;;1.00;;
10333;SDS011;5212;47.892;16.406;2022-09-27T10:58:48;1.67;;;1.27;;
10333;SDS011;5212;47.892;16.406;2022-09-27T11:01:16;1.47;;;1.30;;
10333;SDS011;5212;47.892;16.406;2022-09-27T11:03:45;1.30;;;1.17;;
10333;SDS011;5212;47.892;16.406;2022-09-27T11:06:19;2.00;;;1.47;;
10333;SDS011;5212;47.892;16.406;2022-09-27T11:08:54;11.67;;;8.23;;
10333;SDS011;5212;47.892;16.406;2022-09-27T11:11:22;13.00;;;8.83;;
10333;SDS011;5212;47.892;16.406;2022-09-27T11:13:57;5.17;;;4.10;;
10333;SDS011;5212;47.892;16.406;2022-09-27T11:16:33;5.40;;;3.73;;
10333;SDS011;5212;47.892;16.406;2022-09-27T11:19:24;2.93;;;1.30;;
10333;SDS011;5212;47.892;16.406;2022-09-27T11:22:03;2.90;;;2.60;;
10333;SDS011;5212;47.892;16.406;2022-09-27T11:24:42;2.40;;;1.80;;
10333;SDS011;5212;47.892;16.406;2022-09-27T11:27:17;1.63;;;1.40;;
10333;SDS011;5212;47.892;16.406;2022-09-27T11:29:52;1.67;;;1.53;;
10333;SDS011;5212;47.892;16.406;2022-09-27T11:32:29;1.60;;;1.40;;
10333;SDS011;5212;47.892;16.406;2022-09-27T11:35:14;1.60;;;1.40;;
10333;SDS011;5212;47.892;16.406;2022-09-27T11:38:01;1.53;;;1.43;;
10333;SDS011;5212;47.892;16.406;2022-09-27T11:40:42;1.53;;;1.40;;
10333;SDS011;5212;47.892;16.406;2022-09-27T11:43:21;1.70;;;1.60;;
10333;SDS011;5212;47.892;16.406;2022-09-27T11:45:56;3.07;;;1.50;;
10333;SDS011;5212;47.892;16.406;2022-09-27T11:48:35;2.70;;;2.00;;
10333;SDS011;5212;47.892;16.406;2022-09-27T11:51:17;1.60;;;1.50;;
10333;SDS011;5212;47.892;16.406;2022-09-27T11:53:55;1.87;;;1.47;;
10333;SDS011;5212;47.892;16.406;2022-09-27T11:56:32;2.70;;;1.10;;
10333;SDS011;5212;47.892;16.406;2022-09-27T11:59:09;1.70;;;1.17;;
10333;SDS011;5212;47.892;16.406;2022-09-27T12:01:45;1.63;;;1.10;;
10333;SDS011;5212;47.892;16.406;2022-09-27T12:04:25;2.70;;;1.00;;
10333;SDS011;5212;47.892;16.406;2022-09-27T12:07:03;1.43;;;1.00;;
10333;SDS011;5212;47.892;16.406;2022-09-27T12:09:36;1.50;;;1.07;;
10333;SDS011;5212;47.892;16.406;2022-09-27T12:12:08;1.30;;;1.00;;
10333;SDS011;5212;47.892;16.406;2022-09-27T12:14:39;1.27;;;1.10;;
10333;SDS011;5212;47.892;16.406;2022-09-27T12:17:10;1.13;;;0.90;;
10333;SDS011;5212;47.892;16.406;2022-09-27T12:19:39;0.80;;;0.80;;
10333;SDS011;5212;47.892;16.406;2022-09-27T12:22:10;2.30;;;2.10;;
10333;SDS011;5212;47.892;16.406;2022-09-27T12:24:41;3.27;;;1.83;;
10333;SDS011;5212;47.892;16.406;2022-09-27T12:27:12;1.43;;;1.33;;
10333;SDS011;5212;47.892;16.406;2022-09-27T12:29:41;3.93;;;2.73;;
10333;SDS011;5212;47.892;16.406;2022-09-27T12:32:12;4.23;;;2.40;;
10333;SDS011;5212;47.892;16.406;2022-09-27T12:34:43;6.80;;;5.03;;
10333;SDS011;5212;47.892;16.406;2022-09-27T12:37:13;6.10;;;4.50;;
10333;SDS011;5212;47.892;16.406;2022-09-27T12:39:48;5.73;;;4.07;;
10333;SDS011;5212;47.892;16.406;2022-09-27T12:42:18;4.43;;;2.63;;
10333;SDS011;5212;47.892;16.406;2022-09-27T12:44:46;2.03;;;1.37;;
10333;SDS011;5212;47.892;16.406;2022-09-27T12:47:24;1.17;;;1.07;;
10333;SDS011;5212;47.892;16.406;2022-09-27T12:50:10;2.23;;;1.80;;
10333;SDS011;5212;47.892;16.406;2022-09-27T12:52:42;3.10;;;2.30;;
10333;SDS011;5212;47.892;16.406;2022-09-27T12:55:17;6.70;;;4.90;;
10333;SDS011;5212;47.892;16.406;2022-09-27T12:58:02;7.47;;;4.70;;
10333;SDS011;5212;47.892;16.406;2022-09-27T13:00:49;4.33;;;3.13;;
10333;SDS011;5212;47.892;16.406;2022-09-27T13:03:22;1.20;;;1.10;;
10333;SDS011;5212;47.892;16.406;2022-09-27T13:09:11;0.70;;;0.70;;
10333;SDS011;5212;47.892;16.406;2022-09-27T13:12:05;0.80;;;0.80;;
10333;SDS011;5212;47.892;16.406;2022-09-27T13:14:38;1.03;;;0.80;;
10333;SDS011;5212;47.892;16.406;2022-09-27T13:19:59;1.07;;;0.87;;
10333;SDS011;5212;47.892;16.406;2022-09-27T13:29:21;1.30;;;0.80;;
10333;SDS011;5212;47.892;16.406;2022-09-27T13:34:42;2.60;;;1.30;;
10333;SDS011;5212;47.892;16.406;2022-09-27T13:40:20;2.83;;;2.00;;
10333;SDS011;5212;47.892;16.406;2022-09-27T13:42:55;3.17;;;2.30;;
10333;SDS011;5212;47.892;16.406;2022-09-27T13:46:01;2.67;;;2.17;;
10333;SDS011;5212;47.892;16.406;2022-09-27T13:48:31;1.90;;;1.70;;
10333;SDS011;5212;47.892;16.406;2022-09-27T13:51:13;2.50;;;1.80;;
10333;SDS011;5212;47.892;16.406;2022-09-27T13:53:55;2.20;;;1.60;;
10333;SDS011;5212;47.892;16.406;2022-09-27T13:59:23;2.10;;;1.50;;
10333;SDS011;5212;47.892;16.406;2022-09-27T14:01:55;1.40;;;1.10;;
10333;SDS011;5212;47.892;16.406;2022-09-27T14:04:27;1.73;;;1.17;;
10333;SDS011;5212;47.892;16.406;2022-09-27T14:06:59;1.37;;;1.00;;
10333;SDS011;5212;47.892;16.406;2022-09-27T14:09:32;1.40;;;1.03;;
10333;SDS011;5212;47.892;16.406;2022-09-27T14:12:07;1.20;;;0.90;;
10333;SDS011;5212;47.892;16.406;2022-09-27T14:14:37;1.17;;;0.80;;
10333;SDS011;5212;47.892;16.406;2022-09-27T14:17:11;2.00;;;1.10;;
10333;SDS011;5212;47.892;16.406;2022-09-27T14:19:39;4.60;;;0.90;;
10333;SDS011;5212;47.892;16.406;2022-09-27T14:22:12;1.13;;;1.00;;
10333;SDS011;5212;47.892;16.406;2022-09-27T14:24:44;1.00;;;0.90;;
10333;SDS011;5212;47.892;16.406;2022-09-27T14:27:27;1.20;;;1.00;;
10333;SDS011;5212;47.892;16.406;2022-09-27T14:29:55;1.10;;;1.00;;
10333;SDS011;5212;47.892;16.406;2022-09-27T14:32:27;1.13;;;1.00;;
10333;SDS011;5212;47.892;16.406;2022-09-27T14:35:06;2.90;;;0.80;;
10333;SDS011;5212;47.892;16.406;2022-09-27T14:37:56;2.50;;;1.10;;
10333;SDS011;5212;47.892;16.406;2022-09-27T14:40:23;1.20;;;1.10;;
10333;SDS011;5212;47.892;16.406;2022-09-27T14:42:51;1.53;;;0.90;;
10333;SDS011;5212;47.892;16.406;2022-09-27T14:45:20;1.53;;;0.80;;
10333;SDS011;5212;47.892;16.406;2022-09-27T14:47:50;1.00;;;0.90;;
10333;SDS011;5212;47.892;16.406;2022-09-27T14:50:19;1.40;;;0.90;;
10333;SDS011;5212;47.892;16.406;2022-09-27T14:52:48;1.23;;;0.90;;
10333;SDS011;5212;47.892;16.406;2022-09-27T14:55:20;1.00;;;0.87;;
10333;SDS011;5212;47.892;16.406;2022-09-27T14:57:48;1.43;;;0.90;;
10333;SDS011;5212;47.892;16.406;2022-09-27T15:00:17;0.70;;;0.70;;
10333;SDS011;5212;47.892;16.406;2022-09-27T15:02:46;0.70;;;0.70;;
10333;SDS011;5212;47.892;16.406;2022-09-27T15:05:16;0.70;;;0.50;;
10333;SDS011;5212;47.892;16.406;2022-09-27T15:07:45;2.13;;;0.70;;
10333;SDS011;5212;47.892;16.406;2022-09-27T15:10:13;0.70;;;0.70;;
10333;SDS011;5212;47.892;16.406;2022-09-27T15:12:42;0.83;;;0.60;;
10333;SDS011;5212;47.892;16.406;2022-09-27T15:15:13;1.20;;;0.70;;
10333;SDS011;5212;47.892;16.406;2022-09-27T15:17:43;0.80;;;0.67;;
10333;SDS011;5212;47.892;16.406;2022-09-27T15:23:00;0.70;;;0.67;;
10333;SDS011;5212;47.892;16.406;2022-09-27T15:25:28;3.73;;;2.90;;
10333;SDS011;5212;47.892;16.406;2022-09-27T15:28:13;3.57;;;2.43;;
10333;SDS011;5212;47.892;16.406;2022-09-27T15:30:45;4.10;;;2.90;;
10333;SDS011;5212;47.892;16.406;2022-09-27T15:33:17;2.73;;;2.00;;
10333;SDS011;5212;47.892;16.406;2022-09-27T15:35:48;3.60;;;1.97;;
10333;SDS011;5212;47.892;16.406;2022-09-27T15:38:26;1.67;;;1.40;;
10333;SDS011;5212;47.892;16.406;2022-09-27T15:41:05;1.80;;;1.30;;
10333;SDS011;5212;47.892;16.406;2022-09-27T15:43:37;1.00;;;0.80;;
10333;SDS011;5212;47.892;16.406;2022-09-27T15:52:04;1.40;;;1.10;;
10333;SDS011;5212;47.892;16.406;2022-09-27T15:54:31;1.20;;;1.10;;
10333;SDS011;5212;47.892;16.406;2022-09-27T15:57:01;1.30;;;1.10;;
10333;SDS011;5212;47.892;16.406;2022-09-27T15:59:30;1.53;;;1.27;;
10333;SDS011;5212;47.892;16.406;2022-09-27T16:01:59;1.67;;;1.00;;
10333;SDS011;5212;47.892;16.406;2022-09-27T16:04:27;1.70;;;1.30;;
10333;SDS011;5212;47.892;16.406;2022-09-27T16:06:56;1.37;;;1.10;;